createdAt,value
2022-09-24T00:01:38.460Z,4.95
2022-09-24T00:04:11.972Z,4.38
2022-09-24T00:06:47.790Z,4.80
2022-09-24T00:09:16.956Z,4.30
2022-09-24T00:11:45.446Z,4.55
2022-09-24T00:14:12.773Z,4.53
2022-09-24T00:16:43.823Z,4.47
2022-09-24T00:19:12.125Z,4.97
2022-09-24T00:21:42.227Z,4.68
2022-09-24T00:24:36.555Z,4.22
2022-09-24T00:27:07.308Z,5.28
2022-09-24T00:29:35.326Z,5.28
2022-09-24T00:32:03.025Z,4.78
2022-09-24T00:34:29.937Z,5.95
2022-09-24T00:36:59.052Z,5.35
2022-09-24T00:39:29.240Z,5.03
2022-09-24T00:41:56.097Z,5.15
2022-09-24T00:44:41.174Z,4.93
2022-09-24T00:47:38.715Z,4.35
2022-09-24T00:50:28.895Z,5.43
2022-09-24T00:53:02.518Z,4.40
2022-09-24T00:55:29.780Z,4.18
2022-09-24T00:57:58.806Z,3.97
2022-09-24T01:00:29.122Z,4.78
2022-09-24T01:03:03.748Z,4.43
2022-09-24T01:05:30.816Z,5.18
2022-09-24T01:07:58.107Z,5.72
2022-09-24T01:10:53.199Z,3.95
2022-09-24T01:13:44.152Z,5.80
2022-09-24T01:16:32.648Z,5.90
2022-09-24T01:19:02.055Z,5.13
2022-09-24T01:21:37.443Z,6.03
2022-09-24T01:24:37.145Z,6.68
2022-09-24T01:27:10.612Z,6.18
2022-09-24T01:30:04.483Z,5.28
2022-09-24T01:32:39.786Z,5.82
2022-09-24T01:35:24.790Z,5.32
2022-09-24T01:37:58.519Z,5.57
2022-09-24T01:40:28.371Z,5.03
2022-09-24T01:42:59.849Z,5.60
2022-09-24T01:45:35.477Z,5.45
2022-09-24T01:48:04.003Z,5.55
2022-09-24T01:50:40.486Z,6.05
2022-09-24T01:53:21.181Z,6.15
2022-09-24T01:56:01.545Z,6.13
2022-09-24T01:58:46.273Z,5.00
2022-09-24T02:01:19.127Z,5.38
2022-09-24T02:03:53.612Z,5.65
2022-09-24T02:06:31.147Z,5.82
2022-09-24T02:09:00.305Z,6.22
2022-09-24T02:11:28.069Z,5.53
2022-09-24T02:14:08.830Z,4.82
2022-09-24T02:16:46.735Z,6.00
2022-09-24T02:19:23.434Z,5.55
2022-09-24T02:21:52.949Z,5.40
2022-09-24T02:24:24.340Z,6.22
2022-09-24T02:26:56.062Z,5.88
2022-09-24T02:29:23.155Z,4.95
2022-09-24T02:31:57.826Z,5.25
2022-09-24T02:34:41.402Z,5.38
2022-09-24T02:37:14.083Z,5.93
2022-09-24T02:39:43.590Z,4.90
2022-09-24T02:42:16.974Z,5.15
2022-09-24T02:44:43.752Z,6.20
2022-09-24T02:47:10.999Z,5.30
2022-09-24T02:49:40.336Z,6.00
2022-09-24T02:52:07.189Z,5.40
2022-09-24T02:54:34.288Z,5.53
2022-09-24T02:57:01.045Z,5.72
2022-09-24T02:59:27.963Z,5.68
2022-09-24T03:01:54.789Z,5.68
2022-09-24T03:04:24.098Z,5.72
2022-09-24T03:06:55.521Z,5.38
2022-09-24T03:09:22.201Z,5.50
2022-09-24T03:11:51.873Z,5.45
2022-09-24T03:14:23.480Z,6.15
2022-09-24T03:16:52.674Z,6.70
2022-09-24T03:19:21.501Z,5.28
2022-09-24T03:21:50.625Z,5.38
2022-09-24T03:24:19.704Z,5.20
2022-09-24T03:26:48.535Z,5.65
2022-09-24T03:29:15.219Z,5.28
2022-09-24T03:31:41.986Z,5.45
2022-09-24T03:34:13.580Z,5.47
2022-09-24T03:36:42.541Z,5.30
2022-09-24T03:39:13.945Z,5.00
2022-09-24T03:41:45.355Z,5.78
2022-09-24T03:44:12.055Z,4.88
2022-09-24T03:46:38.796Z,5.05
2022-09-24T03:49:08.041Z,5.35
2022-09-24T03:51:36.961Z,5.25
2022-09-24T03:54:03.668Z,4.93
2022-09-24T03:56:30.441Z,5.10
2022-09-24T03:58:57.188Z,5.60
2022-09-24T04:01:23.927Z,6.50
2022-09-24T04:03:50.791Z,5.85
2022-09-24T04:06:26.997Z,5.38
2022-09-24T04:08:56.143Z,5.60
2022-09-24T04:11:30.135Z,6.63
2022-09-24T04:13:59.157Z,7.22
2022-09-24T04:16:25.930Z,5.65
2022-09-24T04:18:57.966Z,5.97
2022-09-24T04:23:51.522Z,7.10
2022-09-24T04:26:18.252Z,5.72
2022-09-24T04:28:47.081Z,6.38
2022-09-24T04:31:13.810Z,6.10
2022-09-24T04:33:40.746Z,6.57
2022-09-24T04:36:07.483Z,7.30
2022-09-24T04:38:36.630Z,5.25
2022-09-24T04:41:09.900Z,5.38
2022-09-24T04:43:41.960Z,7.28
2022-09-24T04:46:09.807Z,7.13
2022-09-24T04:48:39.691Z,5.97
2022-09-24T04:51:07.851Z,6.75
2022-09-24T04:53:38.280Z,6.53
2022-09-24T04:56:11.839Z,5.82
2022-09-24T04:58:39.019Z,6.28
2022-09-24T05:01:07.990Z,6.03
2022-09-24T05:03:37.068Z,5.93
2022-09-24T05:06:03.884Z,6.28
2022-09-24T05:08:30.592Z,7.45
2022-09-24T05:10:57.240Z,6.95
2022-09-24T05:13:26.423Z,5.90
2022-09-24T05:15:55.289Z,5.43
2022-09-24T05:18:24.238Z,5.30
2022-09-24T05:20:50.908Z,5.93
2022-09-24T05:23:19.974Z,4.97
2022-09-24T05:26:05.210Z,5.55
2022-09-24T05:28:35.541Z,5.15
2022-09-24T05:31:02.501Z,5.72
2022-09-24T05:33:29.304Z,5.28
2022-09-24T05:35:59.052Z,5.35
2022-09-24T05:38:29.910Z,5.65
2022-09-24T05:40:58.823Z,6.25
2022-09-24T05:43:27.910Z,6.10
2022-09-24T05:45:54.934Z,6.35
2022-09-24T05:48:24.209Z,6.38
2022-09-24T05:50:55.138Z,5.15
2022-09-24T05:53:24.524Z,5.82
2022-09-24T05:55:51.205Z,6.28
2022-09-24T05:58:18.288Z,6.30
2022-09-24T06:00:48.517Z,5.00
2022-09-24T06:03:23.289Z,5.38
2022-09-24T06:05:59.623Z,4.88
2022-09-24T06:08:26.353Z,5.05
2022-09-24T06:10:54.235Z,4.57
2022-09-24T06:13:21.910Z,6.25
2022-09-24T06:15:51.150Z,5.65
2022-09-24T06:18:20.305Z,4.97
2022-09-24T06:20:49.242Z,5.03
2022-09-24T06:23:20.616Z,6.28
2022-09-24T06:25:53.677Z,5.75
2022-09-24T06:28:23.671Z,6.28
2022-09-24T06:30:50.408Z,5.28
2022-09-24T06:33:23.351Z,5.57
2022-09-24T06:35:53.337Z,5.05
2022-09-24T06:38:24.524Z,5.88
2022-09-24T06:40:53.540Z,4.13
2022-09-24T06:43:22.651Z,5.57
2022-09-24T06:45:49.438Z,4.60
2022-09-24T06:48:18.746Z,5.63
2022-09-24T06:50:45.515Z,5.18
2022-09-24T06:53:12.900Z,5.65
2022-09-24T06:55:42.586Z,4.47
2022-09-24T06:58:11.545Z,5.22
2022-09-24T07:00:41.612Z,5.00
2022-09-24T07:03:16.298Z,5.32
2022-09-24T07:05:43.907Z,5.63
2022-09-24T07:08:11.302Z,4.65
2022-09-24T07:10:44.268Z,4.80
2022-09-24T07:13:12.301Z,4.60
2022-09-24T07:15:39.646Z,4.63
2022-09-24T07:18:06.476Z,5.90
2022-09-24T07:20:36.898Z,4.90
2022-09-24T07:23:13.975Z,5.60
2022-09-24T07:25:40.809Z,5.93
2022-09-24T07:28:11.956Z,6.15
2022-09-24T07:30:42.002Z,5.17
2022-09-24T07:33:11.964Z,4.95
2022-09-24T07:35:41.439Z,6.28
2022-09-24T07:38:16.761Z,5.72
2022-09-24T07:40:44.814Z,6.03
2022-09-24T07:43:14.012Z,6.13
2022-09-24T07:45:45.229Z,5.75
2022-09-24T07:48:15.767Z,5.85
2022-09-24T07:50:50.217Z,5.90
2022-09-24T07:53:17.148Z,5.63
2022-09-24T07:55:46.586Z,6.05
2022-09-24T07:58:14.332Z,5.25
2022-09-24T08:00:41.847Z,6.90
2022-09-24T08:03:13.219Z,6.63
2022-09-24T08:05:46.204Z,5.20
2022-09-24T08:08:15.773Z,7.03
2022-09-24T08:10:43.030Z,7.72
2022-09-24T08:13:12.320Z,7.00
2022-09-24T08:15:39.119Z,7.00
2022-09-24T08:18:05.967Z,6.13
2022-09-24T08:20:33.349Z,6.15
2022-09-24T08:23:08.095Z,6.93
2022-09-24T08:25:37.106Z,5.82
2022-09-24T08:28:08.108Z,6.47
2022-09-24T08:30:39.843Z,6.57
2022-09-24T08:33:09.139Z,9.25
2022-09-24T08:35:41.328Z,8.27
2022-09-24T08:38:09.160Z,7.53
2022-09-24T08:41:12.663Z,9.00
2022-09-24T08:44:10.314Z,9.30
2022-09-24T08:47:05.108Z,6.55
2022-09-24T08:49:42.542Z,6.43
2022-09-24T08:52:39.538Z,6.72
2022-09-24T08:55:11.909Z,5.40
2022-09-24T08:57:51.815Z,7.97
2022-09-24T09:00:19.797Z,5.95
2022-09-24T09:03:04.503Z,6.30
2022-09-24T09:05:50.054Z,6.25
2022-09-24T09:08:50.034Z,5.65
2022-09-24T09:11:15.261Z,6.10
2022-09-24T09:13:57.956Z,5.85
2022-09-24T09:16:56.024Z,5.05
2022-09-24T09:19:32.375Z,5.35
2022-09-24T09:22:23.739Z,5.95
2022-09-24T09:25:03.913Z,4.80
2022-09-24T09:27:35.724Z,4.60
2022-09-24T09:30:13.935Z,5.28
2022-09-24T09:32:56.744Z,5.35
2022-09-24T09:35:46.625Z,4.88
2022-09-24T09:38:31.304Z,4.93
2022-09-24T09:41:13.723Z,4.80
2022-09-24T09:43:43.996Z,5.13
2022-09-24T09:46:28.033Z,5.00
2022-09-24T09:49:03.030Z,4.80
2022-09-24T09:51:37.292Z,5.53
2022-09-24T09:54:06.736Z,5.53
2022-09-24T09:56:43.722Z,5.30
2022-09-24T09:59:15.655Z,4.75
2022-09-24T10:04:43.064Z,3.65
2022-09-24T10:07:13.444Z,5.00
2022-09-24T10:09:42.226Z,4.63
2022-09-24T10:12:21.232Z,3.15
2022-09-24T10:15:22.296Z,3.03
2022-09-24T10:17:52.377Z,2.85
2022-09-24T10:20:31.397Z,2.60
2022-09-24T10:23:07.740Z,2.30
2022-09-24T10:25:37.277Z,2.50
2022-09-24T10:28:27.344Z,2.08
2022-09-24T10:31:20.559Z,2.30
2022-09-24T10:33:52.255Z,2.65
2022-09-24T10:36:26.321Z,2.70
2022-09-24T10:39:16.172Z,1.67
2022-09-24T10:41:53.857Z,2.38
2022-09-24T10:44:28.431Z,2.10
2022-09-24T10:47:15.618Z,1.67
2022-09-24T10:50:18.529Z,1.77
2022-09-24T10:53:20.330Z,2.35
2022-09-24T10:56:05.341Z,2.30
2022-09-24T10:59:07.733Z,2.10
2022-09-24T11:04:25.456Z,1.90
2022-09-24T11:07:09.588Z,1.75
2022-09-24T11:09:52.727Z,1.80
2022-09-24T11:12:39.350Z,1.70
2022-09-24T11:15:23.951Z,2.08
2022-09-24T11:18:31.142Z,2.08
2022-09-24T11:21:37.277Z,1.80
2022-09-24T11:24:37.842Z,1.80
2022-09-24T11:27:16.543Z,2.20
2022-09-24T11:30:10.561Z,1.95
2022-09-24T11:33:22.093Z,2.08
2022-09-24T11:36:20.912Z,1.80
2022-09-24T11:39:11.455Z,1.92
2022-09-24T11:41:50.550Z,2.08
2022-09-24T11:44:46.382Z,2.10
2022-09-24T11:47:40.001Z,1.88
2022-09-24T11:50:12.580Z,1.60
2022-09-24T11:52:44.842Z,2.13
2022-09-24T11:55:25.826Z,2.35
2022-09-24T11:58:18.021Z,1.85
2022-09-24T12:03:26.220Z,2.40
2022-09-24T12:06:16.164Z,2.60
2022-09-24T12:08:52.861Z,2.97
2022-09-24T12:11:42.848Z,2.08
2022-09-24T12:14:17.456Z,2.42
2022-09-24T12:16:47.737Z,2.20
2022-09-24T12:19:19.180Z,2.63
2022-09-24T12:21:51.604Z,2.45
2022-09-24T12:24:33.072Z,2.53
2022-09-24T12:27:07.188Z,2.05
2022-09-24T12:30:09.097Z,2.25
2022-09-24T12:32:56.407Z,2.22
2022-09-24T12:36:07.197Z,2.03
2022-09-24T12:38:51.705Z,2.00
2022-09-24T12:41:29.948Z,2.20
2022-09-24T12:44:33.191Z,2.00
2022-09-24T12:47:00.996Z,2.90
2022-09-24T12:49:36.469Z,2.50
2022-09-24T12:52:16.302Z,2.60
2022-09-24T12:54:44.273Z,2.15
2022-09-24T12:57:25.991Z,2.45
2022-09-24T13:02:56.552Z,2.78
2022-09-24T13:05:27.209Z,2.20
2022-09-24T13:07:59.924Z,2.78
2022-09-24T13:10:32.697Z,2.30
2022-09-24T13:13:02.717Z,2.17
2022-09-24T13:15:35.112Z,2.58
2022-09-24T13:18:09.180Z,2.03
2022-09-24T13:20:47.580Z,2.97
2022-09-24T13:23:21.051Z,2.60
2022-09-24T13:26:09.420Z,2.33
2022-09-24T13:28:58.331Z,2.03
2022-09-24T13:31:30.022Z,2.10
2022-09-24T13:34:04.985Z,2.00
2022-09-24T13:37:02.756Z,2.28
2022-09-24T13:39:48.600Z,2.30
2022-09-24T13:42:26.363Z,2.25
2022-09-24T13:44:55.059Z,2.30
2022-09-24T13:47:32.240Z,2.10
2022-09-24T13:50:14.308Z,1.92
2022-09-24T13:55:31.036Z,2.08
2022-09-24T13:58:01.157Z,2.38
2022-09-24T14:00:29.537Z,2.40
2022-09-24T14:03:15.147Z,2.22
2022-09-24T14:05:42.069Z,1.80
2022-09-24T14:08:16.367Z,2.15
2022-09-24T14:10:44.212Z,2.70
2022-09-24T14:13:13.878Z,4.20
2022-09-24T14:15:54.434Z,4.57
2022-09-24T14:18:27.839Z,5.32
2022-09-24T14:20:58.980Z,3.00
2022-09-24T14:23:31.114Z,5.80
2022-09-24T14:26:03.541Z,3.60
2022-09-24T14:28:32.816Z,3.58
2022-09-24T14:31:02.537Z,4.20
2022-09-24T14:33:33.010Z,4.00
2022-09-24T14:36:05.674Z,5.03
2022-09-24T14:38:44.447Z,4.78
2022-09-24T14:41:21.689Z,4.82
2022-09-24T14:43:53.295Z,4.28
2022-09-24T14:46:34.057Z,4.70
2022-09-24T14:49:23.128Z,4.00
2022-09-24T14:51:59.934Z,3.42
2022-09-24T14:54:27.491Z,8.00
2022-09-24T14:56:54.504Z,4.07
2022-09-24T14:59:35.923Z,3.88
2022-09-24T15:02:32.087Z,6.30
2022-09-24T15:05:06.137Z,4.78
2022-09-24T15:07:35.018Z,4.03
2022-09-24T15:10:04.235Z,3.47
2022-09-24T15:12:32.122Z,4.45
2022-09-24T15:15:04.992Z,4.10
2022-09-24T15:17:33.975Z,3.85
2022-09-24T15:20:04.447Z,3.97
2022-09-24T15:22:36.594Z,4.53
2022-09-24T15:25:07.046Z,3.55
2022-09-24T15:27:39.963Z,3.95
2022-09-24T15:30:10.392Z,3.58
2022-09-24T15:32:39.564Z,4.50
2022-09-24T15:35:09.770Z,3.50
2022-09-24T15:37:42.642Z,4.15
2022-09-24T15:40:09.985Z,4.85
2022-09-24T15:42:36.718Z,5.45
2022-09-24T15:45:09.192Z,5.53
2022-09-24T15:47:38.377Z,5.45
2022-09-24T15:50:07.884Z,6.45
2022-09-24T15:52:43.717Z,6.38
2022-09-24T15:55:16.639Z,6.90
2022-09-24T15:57:46.863Z,7.20
2022-09-24T16:00:18.778Z,7.07
2022-09-24T16:05:20.583Z,16.92
2022-09-24T16:07:52.532Z,10.07
2022-09-24T16:12:50.669Z,5.30
2022-09-24T16:15:17.404Z,5.40
2022-09-24T16:17:44.129Z,6.38
2022-09-24T16:20:12.987Z,5.40
2022-09-24T16:22:41.998Z,5.05
2022-09-24T16:25:09.075Z,4.82
2022-09-24T16:27:38.487Z,5.00
2022-09-24T16:30:08.258Z,4.93
2022-09-24T16:32:35.078Z,4.95
2022-09-24T16:35:04.039Z,6.60
2022-09-24T16:37:31.141Z,6.40
2022-09-24T16:39:58.018Z,5.85
2022-09-24T16:42:27.022Z,5.70
2022-09-24T16:44:58.622Z,4.63
2022-09-24T16:47:25.352Z,4.57
2022-09-24T16:49:51.997Z,4.50
2022-09-24T16:52:20.832Z,5.15
2022-09-24T16:54:47.558Z,5.50
2022-09-24T16:57:14.534Z,4.82
2022-09-24T16:59:41.224Z,5.72
2022-09-24T17:02:12.311Z,5.43
2022-09-24T17:04:43.672Z,6.30
2022-09-24T17:07:12.104Z,6.95
2022-09-24T17:09:57.784Z,8.93
2022-09-24T17:12:24.842Z,7.65
2022-09-24T17:14:51.564Z,5.63
2022-09-24T17:17:20.801Z,4.78
2022-09-24T17:19:49.713Z,4.38
2022-09-24T17:22:16.479Z,6.47
2022-09-24T17:24:45.658Z,7.50
2022-09-24T17:27:12.404Z,13.38
2022-09-24T17:29:39.109Z,12.07
2022-09-24T17:32:08.042Z,8.20
2022-09-24T17:34:34.783Z,6.93
2022-09-24T17:37:01.498Z,5.57
2022-09-24T17:39:28.685Z,5.55
2022-09-24T17:41:57.899Z,5.03
2022-09-24T17:44:24.614Z,15.23
2022-09-24T17:46:53.683Z,9.13
2022-09-24T17:49:25.178Z,6.22
2022-09-24T17:51:51.953Z,7.57
2022-09-24T17:54:21.373Z,6.07
2022-09-24T17:56:48.326Z,5.45
2022-09-24T17:59:17.810Z,6.50
2022-09-24T18:01:45.530Z,8.07
2022-09-24T18:04:15.943Z,8.52
2022-09-24T18:06:47.090Z,17.75
2022-09-24T18:09:15.537Z,14.90
2022-09-24T18:11:48.005Z,11.30
2022-09-24T18:14:20.424Z,11.27
2022-09-24T18:16:48.996Z,12.10
2022-09-24T18:19:18.576Z,10.18
2022-09-24T18:21:46.457Z,10.68
2022-09-24T18:24:16.414Z,8.75
2022-09-24T18:26:51.564Z,8.75
2022-09-24T18:29:19.200Z,10.73
2022-09-24T18:31:49.308Z,9.82
2022-09-24T18:34:16.397Z,8.93
2022-09-24T18:36:44.401Z,9.32
2022-09-24T18:39:13.496Z,10.02
2022-09-24T18:41:44.257Z,8.02
2022-09-24T18:44:11.503Z,8.57
2022-09-24T18:46:41.211Z,9.40
2022-09-24T18:49:08.152Z,7.57
2022-09-24T18:51:39.646Z,8.10
2022-09-24T18:54:14.163Z,7.82
2022-09-24T18:56:41.513Z,6.78
2022-09-24T18:59:15.847Z,6.85
2022-09-24T19:01:43.398Z,7.80
2022-09-24T19:04:12.066Z,9.52
2022-09-24T19:06:41.438Z,11.18
2022-09-24T19:09:15.452Z,7.40
2022-09-24T19:11:42.305Z,7.38
2022-09-24T19:14:09.279Z,8.02
2022-09-24T19:16:40.769Z,8.75
2022-09-24T19:19:09.692Z,9.02
2022-09-24T19:21:39.026Z,6.97
2022-09-24T19:24:06.755Z,8.30
2022-09-24T19:26:35.446Z,10.10
2022-09-24T19:29:05.136Z,8.05
2022-09-24T19:31:36.805Z,9.73
2022-09-24T19:34:06.120Z,7.32
2022-09-24T19:36:42.709Z,8.82
2022-09-24T19:39:14.886Z,8.57
2022-09-24T19:41:44.278Z,7.38
2022-09-24T19:44:11.994Z,9.18
2022-09-24T19:46:39.293Z,8.55
2022-09-24T19:49:08.661Z,13.38
2022-09-24T19:51:36.236Z,11.50
2022-09-24T19:54:10.379Z,9.65
2022-09-24T19:56:40.055Z,7.22
2022-09-24T19:59:07.893Z,11.52
2022-09-24T20:01:34.804Z,10.27
2022-09-24T20:04:06.477Z,7.95
2022-09-24T20:06:37.518Z,10.15
2022-09-24T20:09:05.051Z,7.72
2022-09-24T20:11:33.972Z,10.60
2022-09-24T20:14:08.777Z,8.57
2022-09-24T20:16:35.973Z,7.68
2022-09-24T20:19:03.576Z,5.65
2022-09-24T20:21:36.837Z,6.35
2022-09-24T20:24:07.696Z,4.10
2022-09-24T20:26:53.425Z,6.40
2022-09-24T20:29:26.158Z,6.68
2022-09-24T20:31:55.403Z,5.25
2022-09-24T20:34:34.205Z,6.93
2022-09-24T20:37:02.182Z,6.32
2022-09-24T20:39:29.773Z,7.82
2022-09-24T20:42:03.865Z,6.20
2022-09-24T20:44:33.340Z,7.60
2022-09-24T20:47:02.365Z,6.78
2022-09-24T20:49:33.251Z,8.00
2022-09-24T20:52:02.777Z,6.93
2022-09-24T20:54:34.795Z,7.80
2022-09-24T20:59:32.848Z,7.18
2022-09-24T21:01:59.687Z,5.80
2022-09-24T21:04:26.663Z,5.47
2022-09-24T21:06:55.879Z,6.57
2022-09-24T21:09:24.916Z,7.25
2022-09-24T21:11:54.650Z,6.20
2022-09-24T21:14:22.179Z,7.95
2022-09-24T21:16:55.057Z,7.20
2022-09-24T21:19:26.511Z,8.57
2022-09-24T21:21:53.855Z,6.68
2022-09-24T21:24:26.348Z,7.97
2022-09-24T21:26:59.083Z,6.82
2022-09-24T21:29:28.479Z,7.65
2022-09-24T21:31:55.193Z,6.68
2022-09-24T21:34:22.232Z,4.13
2022-09-24T21:36:53.093Z,6.00
2022-09-24T21:39:26.580Z,4.38
2022-09-24T21:41:59.446Z,4.13
2022-09-24T21:44:34.150Z,5.45
2022-09-24T21:47:04.179Z,4.72
2022-09-24T21:49:36.547Z,6.90
2022-09-24T21:52:05.064Z,7.53
2022-09-24T21:54:36.096Z,7.35
2022-09-24T21:57:04.115Z,6.75
2022-09-24T21:59:49.358Z,6.07
2022-09-24T22:02:18.768Z,6.32
2022-09-24T22:04:45.486Z,5.80
2022-09-24T22:07:12.705Z,5.47
2022-09-24T22:09:41.566Z,5.90
2022-09-24T22:12:08.353Z,5.03
2022-09-24T22:14:35.169Z,4.65
2022-09-24T22:17:03.832Z,4.53
2022-09-24T22:19:31.176Z,5.32
2022-09-24T22:22:00.141Z,5.60
2022-09-24T22:24:29.564Z,4.97
2022-09-24T22:26:58.968Z,7.05
2022-09-24T22:29:27.937Z,7.32
2022-09-24T22:31:54.667Z,8.55
2022-09-24T22:34:40.286Z,8.25
2022-09-24T22:37:09.474Z,7.72
2022-09-24T22:39:38.275Z,9.60
2022-09-24T22:42:05.541Z,8.15
2022-09-24T22:44:36.840Z,8.70
2022-09-24T22:47:03.575Z,9.15
2022-09-24T22:49:31.724Z,7.57
2022-09-24T22:51:59.293Z,9.40
2022-09-24T22:54:28.248Z,12.25
2022-09-24T22:56:59.945Z,9.10
2022-09-24T22:59:26.629Z,9.20
2022-09-24T23:01:57.766Z,8.82
2022-09-24T23:04:24.489Z,4.73
2022-09-24T23:06:51.258Z,7.80
2022-09-24T23:09:18.132Z,8.45
2022-09-24T23:11:44.859Z,7.68
2022-09-24T23:14:14.247Z,6.63
2022-09-24T23:16:46.737Z,6.50
2022-09-24T23:19:17.090Z,6.35
2022-09-24T23:21:46.396Z,8.27
2022-09-24T23:24:20.163Z,7.05
2022-09-24T23:26:51.014Z,8.55
2022-09-24T23:29:20.130Z,7.43
2022-09-24T23:31:48.921Z,8.02
2022-09-24T23:34:15.592Z,9.20
2022-09-24T23:36:42.735Z,7.85
2022-09-24T23:39:15.434Z,11.07
2022-09-24T23:41:45.385Z,7.82
2022-09-24T23:44:12.643Z,9.93
2022-09-24T23:46:39.634Z,9.93
2022-09-24T23:49:06.367Z,10.20
2022-09-24T23:51:37.463Z,11.32
2022-09-24T23:54:06.735Z,11.37
2022-09-24T23:56:33.573Z,10.23
2022-09-24T23:59:02.405Z,9.38
